sensor_id;sensor_type;location;lat;lon;timestamp;P1;P2;P0
83626;PMS5003;73589;41.158;-73.238;2024-02-15T00:02:04;0;0;
83626;PMS5003;73589;41.158;-73.238;2024-02-15T00:04:34;0;0;
83626;PMS5003;73589;41.158;-73.238;2024-02-15T00:07:05;0;0;
83626;PMS5003;73589;41.158;-73.238;2024-02-15T00:09:36;0;0;
83626;PMS5003;73589;41.158;-73.238;2024-02-15T00:12:06;1;1;
83626;PMS5003;73589;41.158;-73.238;2024-02-15T00:14:37;1;1;
83626;PMS5003;73589;41.158;-73.238;2024-02-15T00:17:07;0;0;
83626;PMS5003;73589;41.158;-73.238;2024-02-15T00:19:36;0;0;
83626;PMS5003;73589;41.158;-73.238;2024-02-15T00:22:08;0;0;
83626;PMS5003;73589;41.158;-73.238;2024-02-15T00:24:38;0;0;
83626;PMS5003;73589;41.158;-73.238;2024-02-15T00:27:08;0;0;
83626;PMS5003;73589;41.158;-73.238;2024-02-15T00:29:38;0;0;
83626;PMS5003;73589;41.158;-73.238;2024-02-15T00:32:08;0;0;
83626;PMS5003;73589;41.158;-73.238;2024-02-15T00:34:39;0;0;
83626;PMS5003;73589;41.158;-73.238;2024-02-15T00:37:09;0;0;
83626;PMS5003;73589;41.158;-73.238;2024-02-15T00:39:39;0;0;
83626;PMS5003;73589;41.158;-73.238;2024-02-15T00:42:10;0;0;
83626;PMS5003;73589;41.158;-73.238;2024-02-15T00:44:40;0;0;
83626;PMS5003;73589;41.158;-73.238;2024-02-15T00:47:11;0;0;
83626;PMS5003;73589;41.158;-73.238;2024-02-15T00:49:42;0;0;
83626;PMS5003;73589;41.158;-73.238;2024-02-15T00:52:13;0;0;
83626;PMS5003;73589;41.158;-73.238;2024-02-15T00:54:43;0;0;
83626;PMS5003;73589;41.158;-73.238;2024-02-15T00:57:13;0;0;
83626;PMS5003;73589;41.158;-73.238;2024-02-15T00:59:44;0;0;
83626;PMS5003;73589;41.158;-73.238;2024-02-15T01:02:15;0;0;
83626;PMS5003;73589;41.158;-73.238;2024-02-15T01:04:45;0;0;
83626;PMS5003;73589;41.158;-73.238;2024-02-15T01:07:16;0;0;
83626;PMS5003;73589;41.158;-73.238;2024-02-15T01:09:47;0;0;
83626;PMS5003;73589;41.158;-73.238;2024-02-15T01:12:18;0;0;
83626;PMS5003;73589;41.158;-73.238;2024-02-15T01:14:50;0;0;
83626;PMS5003;73589;41.158;-73.238;2024-02-15T01:17:18;0;0;
83626;PMS5003;73589;41.158;-73.238;2024-02-15T01:19:49;0;0;
83626;PMS5003;73589;41.158;-73.238;2024-02-15T01:22:19;0;0;
83626;PMS5003;73589;41.158;-73.238;2024-02-15T01:24:50;0;0;
83626;PMS5003;73589;41.158;-73.238;2024-02-15T01:27:22;0;0;
83626;PMS5003;73589;41.158;-73.238;2024-02-15T01:29:52;0;0;
83626;PMS5003;73589;41.158;-73.238;2024-02-15T01:32:24;0;0;
83626;PMS5003;73589;41.158;-73.238;2024-02-15T01:34:53;0;0;
83626;PMS5003;73589;41.158;-73.238;2024-02-15T01:37:24;0;0;
83626;PMS5003;73589;41.158;-73.238;2024-02-15T01:39:55;0;0;
83626;PMS5003;73589;41.158;-73.238;2024-02-15T01:42:25;0;0;
83626;PMS5003;73589;41.158;-73.238;2024-02-15T01:44:55;0;0;
83626;PMS5003;73589;41.158;-73.238;2024-02-15T01:47:27;0;0;
83626;PMS5003;73589;41.158;-73.238;2024-02-15T01:49:57;0;0;
83626;PMS5003;73589;41.158;-73.238;2024-02-15T01:52:27;0;0;
83626;PMS5003;73589;41.158;-73.238;2024-02-15T01:54:59;0;0;
83626;PMS5003;73589;41.158;-73.238;2024-02-15T01:57:28;0;0;
83626;PMS5003;73589;41.158;-73.238;2024-02-15T01:59:59;0;0;
83626;PMS5003;73589;41.158;-73.238;2024-02-15T02:02:31;0;0;
83626;PMS5003;73589;41.158;-73.238;2024-02-15T02:05:00;0;0;
83626;PMS5003;73589;41.158;-73.238;2024-02-15T02:07:31;0;0;
83626;PMS5003;73589;41.158;-73.238;2024-02-15T02:10:01;0;0;
83626;PMS5003;73589;41.158;-73.238;2024-02-15T02:12:32;0;0;
83626;PMS5003;73589;41.158;-73.238;2024-02-15T02:15:03;0;0;
83626;PMS5003;73589;41.158;-73.238;2024-02-15T02:17:34;0;0;
83626;PMS5003;73589;41.158;-73.238;2024-02-15T02:20:04;0;0;
83626;PMS5003;73589;41.158;-73.238;2024-02-15T02:22:34;0;0;
83626;PMS5003;73589;41.158;-73.238;2024-02-15T02:25:06;0;0;
83626;PMS5003;73589;41.158;-73.238;2024-02-15T02:27:36;0;0;
83626;PMS5003;73589;41.158;-73.238;2024-02-15T02:30:12;0;0;
83626;PMS5003;73589;41.158;-73.238;2024-02-15T02:32:38;0;0;
83626;PMS5003;73589;41.158;-73.238;2024-02-15T02:35:07;0;0;
83626;PMS5003;73589;41.158;-73.238;2024-02-15T02:37:38;0;0;
83626;PMS5003;73589;41.158;-73.238;2024-02-15T02:40:09;0;0;
83626;PMS5003;73589;41.158;-73.238;2024-02-15T02:45:10;0;0;
83626;PMS5003;73589;41.158;-73.238;2024-02-15T02:47:40;0;0;
83626;PMS5003;73589;41.158;-73.238;2024-02-15T02:50:11;0;0;
83626;PMS5003;73589;41.158;-73.238;2024-02-15T02:52:42;0;0;
83626;PMS5003;73589;41.158;-73.238;2024-02-15T02:55:12;0;0;
83626;PMS5003;73589;41.158;-73.238;2024-02-15T02:57:43;0;0;
83626;PMS5003;73589;41.158;-73.238;2024-02-15T03:00:14;0;0;
83626;PMS5003;73589;41.158;-73.238;2024-02-15T03:02:44;0;0;
83626;PMS5003;73589;41.158;-73.238;2024-02-15T03:05:15;0;0;
83626;PMS5003;73589;41.158;-73.238;2024-02-15T03:07:45;0;0;
83626;PMS5003;73589;41.158;-73.238;2024-02-15T03:10:15;0;0;
83626;PMS5003;73589;41.158;-73.238;2024-02-15T03:12:46;0;0;
83626;PMS5003;73589;41.158;-73.238;2024-02-15T03:15:16;0;0;
83626;PMS5003;73589;41.158;-73.238;2024-02-15T03:17:47;0;0;
83626;PMS5003;73589;41.158;-73.238;2024-02-15T03:20:22;0;0;
83626;PMS5003;73589;41.158;-73.238;2024-02-15T03:22:51;0;0;
83626;PMS5003;73589;41.158;-73.238;2024-02-15T03:25:19;0;0;
83626;PMS5003;73589;41.158;-73.238;2024-02-15T03:27:48;0;0;
83626;PMS5003;73589;41.158;-73.238;2024-02-15T03:30:18;0;0;
83626;PMS5003;73589;41.158;-73.238;2024-02-15T03:32:50;0;0;
83626;PMS5003;73589;41.158;-73.238;2024-02-15T03:35:20;0;0;
83626;PMS5003;73589;41.158;-73.238;2024-02-15T03:37:51;0;0;
83626;PMS5003;73589;41.158;-73.238;2024-02-15T03:40:22;0;0;
83626;PMS5003;73589;41.158;-73.238;2024-02-15T03:42:52;0;0;
83626;PMS5003;73589;41.158;-73.238;2024-02-15T03:45:23;0;0;
83626;PMS5003;73589;41.158;-73.238;2024-02-15T03:47:54;0;0;
83626;PMS5003;73589;41.158;-73.238;2024-02-15T03:50:24;0;0;
83626;PMS5003;73589;41.158;-73.238;2024-02-15T03:52:55;0;0;
83626;PMS5003;73589;41.158;-73.238;2024-02-15T03:55:25;0;0;
83626;PMS5003;73589;41.158;-73.238;2024-02-15T03:57:55;0;0;
83626;PMS5003;73589;41.158;-73.238;2024-02-15T04:00:26;0;0;
83626;PMS5003;73589;41.158;-73.238;2024-02-15T04:02:56;0;0;
83626;PMS5003;73589;41.158;-73.238;2024-02-15T04:05:26;0;0;
83626;PMS5003;73589;41.158;-73.238;2024-02-15T04:07:57;0;0;
83626;PMS5003;73589;41.158;-73.238;2024-02-15T04:10:27;0;0;
83626;PMS5003;73589;41.158;-73.238;2024-02-15T04:12:57;0;0;
83626;PMS5003;73589;41.158;-73.238;2024-02-15T04:15:28;0;0;
83626;PMS5003;73589;41.158;-73.238;2024-02-15T04:18:03;0;0;
83626;PMS5003;73589;41.158;-73.238;2024-02-15T04:20:28;0;0;
83626;PMS5003;73589;41.158;-73.238;2024-02-15T04:22:59;0;0;
83626;PMS5003;73589;41.158;-73.238;2024-02-15T04:25:29;0;0;
83626;PMS5003;73589;41.158;-73.238;2024-02-15T04:28:00;0;0;
83626;PMS5003;73589;41.158;-73.238;2024-02-15T04:30:31;0;0;
83626;PMS5003;73589;41.158;-73.238;2024-02-15T04:33:01;0;0;
83626;PMS5003;73589;41.158;-73.238;2024-02-15T04:35:32;0;0;
83626;PMS5003;73589;41.158;-73.238;2024-02-15T04:38:03;0;0;
83626;PMS5003;73589;41.158;-73.238;2024-02-15T04:40:34;0;0;
83626;PMS5003;73589;41.158;-73.238;2024-02-15T04:43:04;0;0;
83626;PMS5003;73589;41.158;-73.238;2024-02-15T04:45:34;0;0;
83626;PMS5003;73589;41.158;-73.238;2024-02-15T04:48:06;0;0;
83626;PMS5003;73589;41.158;-73.238;2024-02-15T04:50:35;0;0;
83626;PMS5003;73589;41.158;-73.238;2024-02-15T04:53:05;0;0;
83626;PMS5003;73589;41.158;-73.238;2024-02-15T04:55:37;0;0;
83626;PMS5003;73589;41.158;-73.238;2024-02-15T04:58:07;0;0;
83626;PMS5003;73589;41.158;-73.238;2024-02-15T05:00:36;0;0;
83626;PMS5003;73589;41.158;-73.238;2024-02-15T05:03:08;0;0;
83626;PMS5003;73589;41.158;-73.238;2024-02-15T05:05:37;0;0;
83626;PMS5003;73589;41.158;-73.238;2024-02-15T05:08:07;0;0;
83626;PMS5003;73589;41.158;-73.238;2024-02-15T05:10:39;0;0;
83626;PMS5003;73589;41.158;-73.238;2024-02-15T05:13:08;0;0;
83626;PMS5003;73589;41.158;-73.238;2024-02-15T05:15:39;0;0;
83626;PMS5003;73589;41.158;-73.238;2024-02-15T05:18:10;0;0;
83626;PMS5003;73589;41.158;-73.238;2024-02-15T05:20:40;0;0;
83626;PMS5003;73589;41.158;-73.238;2024-02-15T05:23:10;0;0;
83626;PMS5003;73589;41.158;-73.238;2024-02-15T05:25:41;0;0;
83626;PMS5003;73589;41.158;-73.238;2024-02-15T05:28:11;0;0;
83626;PMS5003;73589;41.158;-73.238;2024-02-15T05:30:41;0;0;
83626;PMS5003;73589;41.158;-73.238;2024-02-15T05:33:12;0;0;
83626;PMS5003;73589;41.158;-73.238;2024-02-15T05:35:42;0;0;
83626;PMS5003;73589;41.158;-73.238;2024-02-15T05:38:12;0;0;
83626;PMS5003;73589;41.158;-73.238;2024-02-15T05:40:43;0;0;
83626;PMS5003;73589;41.158;-73.238;2024-02-15T05:43:13;0;0;
83626;PMS5003;73589;41.158;-73.238;2024-02-15T05:45:44;0;0;
83626;PMS5003;73589;41.158;-73.238;2024-02-15T05:48:15;0;0;
83626;PMS5003;73589;41.158;-73.238;2024-02-15T05:50:45;0;0;
83626;PMS5003;73589;41.158;-73.238;2024-02-15T05:53:17;0;0;
83626;PMS5003;73589;41.158;-73.238;2024-02-15T05:55:47;0;0;
83626;PMS5003;73589;41.158;-73.238;2024-02-15T05:58:17;0;0;
83626;PMS5003;73589;41.158;-73.238;2024-02-15T06:00:48;0;0;
83626;PMS5003;73589;41.158;-73.238;2024-02-15T06:03:18;0;0;
83626;PMS5003;73589;41.158;-73.238;2024-02-15T06:05:49;0;0;
83626;PMS5003;73589;41.158;-73.238;2024-02-15T06:08:19;0;0;
83626;PMS5003;73589;41.158;-73.238;2024-02-15T06:10:49;0;0;
83626;PMS5003;73589;41.158;-73.238;2024-02-15T06:13:21;0;0;
83626;PMS5003;73589;41.158;-73.238;2024-02-15T06:15:51;0;0;
83626;PMS5003;73589;41.158;-73.238;2024-02-15T06:18:21;0;0;
83626;PMS5003;73589;41.158;-73.238;2024-02-15T06:20:51;0;0;
83626;PMS5003;73589;41.158;-73.238;2024-02-15T06:23:23;0;0;
83626;PMS5003;73589;41.158;-73.238;2024-02-15T06:25:53;0;0;
83626;PMS5003;73589;41.158;-73.238;2024-02-15T06:28:24;0;0;
83626;PMS5003;73589;41.158;-73.238;2024-02-15T06:30:54;0;0;
83626;PMS5003;73589;41.158;-73.238;2024-02-15T06:33:24;0;0;
83626;PMS5003;73589;41.158;-73.238;2024-02-15T06:35:55;0;0;
83626;PMS5003;73589;41.158;-73.238;2024-02-15T06:38:25;0;0;
83626;PMS5003;73589;41.158;-73.238;2024-02-15T06:40:55;0;0;
83626;PMS5003;73589;41.158;-73.238;2024-02-15T06:43:26;0;0;
83626;PMS5003;73589;41.158;-73.238;2024-02-15T06:45:57;0;0;
83626;PMS5003;73589;41.158;-73.238;2024-02-15T06:48:27;0;0;
83626;PMS5003;73589;41.158;-73.238;2024-02-15T06:50:58;0;0;
83626;PMS5003;73589;41.158;-73.238;2024-02-15T06:53:28;0;0;
83626;PMS5003;73589;41.158;-73.238;2024-02-15T06:55:59;0;0;
83626;PMS5003;73589;41.158;-73.238;2024-02-15T06:58:29;0;0;
83626;PMS5003;73589;41.158;-73.238;2024-02-15T07:01:00;0;0;
83626;PMS5003;73589;41.158;-73.238;2024-02-15T07:03:31;0;0;
83626;PMS5003;73589;41.158;-73.238;2024-02-15T07:06:01;0;0;
83626;PMS5003;73589;41.158;-73.238;2024-02-15T07:08:31;0;0;
83626;PMS5003;73589;41.158;-73.238;2024-02-15T07:11:03;0;0;
83626;PMS5003;73589;41.158;-73.238;2024-02-15T07:13:32;0;0;
83626;PMS5003;73589;41.158;-73.238;2024-02-15T07:16:06;0;0;
83626;PMS5003;73589;41.158;-73.238;2024-02-15T07:18:34;0;0;
83626;PMS5003;73589;41.158;-73.238;2024-02-15T07:21:04;0;0;
83626;PMS5003;73589;41.158;-73.238;2024-02-15T07:23:35;0;0;
83626;PMS5003;73589;41.158;-73.238;2024-02-15T07:26:06;0;0;
83626;PMS5003;73589;41.158;-73.238;2024-02-15T07:28:36;0;0;
83626;PMS5003;73589;41.158;-73.238;2024-02-15T07:31:07;0;0;
83626;PMS5003;73589;41.158;-73.238;2024-02-15T07:33:37;0;0;
83626;PMS5003;73589;41.158;-73.238;2024-02-15T07:36:07;0;0;
83626;PMS5003;73589;41.158;-73.238;2024-02-15T07:38:38;0;0;
83626;PMS5003;73589;41.158;-73.238;2024-02-15T07:41:08;0;0;
83626;PMS5003;73589;41.158;-73.238;2024-02-15T07:43:39;0;0;
83626;PMS5003;73589;41.158;-73.238;2024-02-15T07:46:11;0;0;
83626;PMS5003;73589;41.158;-73.238;2024-02-15T07:48:41;0;0;
83626;PMS5003;73589;41.158;-73.238;2024-02-15T07:51:12;0;0;
83626;PMS5003;73589;41.158;-73.238;2024-02-15T07:53:42;0;0;
83626;PMS5003;73589;41.158;-73.238;2024-02-15T07:56:13;0;0;
83626;PMS5003;73589;41.158;-73.238;2024-02-15T07:58:43;0;0;
83626;PMS5003;73589;41.158;-73.238;2024-02-15T08:01:13;0;0;
83626;PMS5003;73589;41.158;-73.238;2024-02-15T08:03:44;0;0;
83626;PMS5003;73589;41.158;-73.238;2024-02-15T08:06:15;0;0;
83626;PMS5003;73589;41.158;-73.238;2024-02-15T08:08:46;0;0;
83626;PMS5003;73589;41.158;-73.238;2024-02-15T08:11:16;0;0;
83626;PMS5003;73589;41.158;-73.238;2024-02-15T08:13:47;0;0;
83626;PMS5003;73589;41.158;-73.238;2024-02-15T08:16:17;0;0;
83626;PMS5003;73589;41.158;-73.238;2024-02-15T08:18:48;0;0;
83626;PMS5003;73589;41.158;-73.238;2024-02-15T08:21:24;0;0;
83626;PMS5003;73589;41.158;-73.238;2024-02-15T08:23:49;0;0;
83626;PMS5003;73589;41.158;-73.238;2024-02-15T08:26:20;0;0;
83626;PMS5003;73589;41.158;-73.238;2024-02-15T08:28:51;0;0;
83626;PMS5003;73589;41.158;-73.238;2024-02-15T08:31:21;0;0;
83626;PMS5003;73589;41.158;-73.238;2024-02-15T08:33:51;0;0;
83626;PMS5003;73589;41.158;-73.238;2024-02-15T08:36:23;0;0;
83626;PMS5003;73589;41.158;-73.238;2024-02-15T08:38:53;0;0;
83626;PMS5003;73589;41.158;-73.238;2024-02-15T08:41:23;0;0;
83626;PMS5003;73589;41.158;-73.238;2024-02-15T08:43:55;0;0;
83626;PMS5003;73589;41.158;-73.238;2024-02-15T08:46:24;0;0;
83626;PMS5003;73589;41.158;-73.238;2024-02-15T08:48:56;0;0;
83626;PMS5003;73589;41.158;-73.238;2024-02-15T08:51:26;0;0;
83626;PMS5003;73589;41.158;-73.238;2024-02-15T08:53:56;0;0;
83626;PMS5003;73589;41.158;-73.238;2024-02-15T08:56:27;0;0;
83626;PMS5003;73589;41.158;-73.238;2024-02-15T08:58:57;0;0;
83626;PMS5003;73589;41.158;-73.238;2024-02-15T09:01:26;0;0;
83626;PMS5003;73589;41.158;-73.238;2024-02-15T09:03:58;0;0;
83626;PMS5003;73589;41.158;-73.238;2024-02-15T09:06:28;0;0;
83626;PMS5003;73589;41.158;-73.238;2024-02-15T09:08:57;0;0;
83626;PMS5003;73589;41.158;-73.238;2024-02-15T09:11:29;0;0;
83626;PMS5003;73589;41.158;-73.238;2024-02-15T09:13:59;0;0;
83626;PMS5003;73589;41.158;-73.238;2024-02-15T09:16:28;0;0;
83626;PMS5003;73589;41.158;-73.238;2024-02-15T09:19:00;0;0;
83626;PMS5003;73589;41.158;-73.238;2024-02-15T09:21:30;0;0;
83626;PMS5003;73589;41.158;-73.238;2024-02-15T09:23:59;0;0;
83626;PMS5003;73589;41.158;-73.238;2024-02-15T09:26:30;0;0;
83626;PMS5003;73589;41.158;-73.238;2024-02-15T09:29:01;0;0;
83626;PMS5003;73589;41.158;-73.238;2024-02-15T09:31:31;0;0;
83626;PMS5003;73589;41.158;-73.238;2024-02-15T09:34:02;0;0;
83626;PMS5003;73589;41.158;-73.238;2024-02-15T09:36:33;0;0;
83626;PMS5003;73589;41.158;-73.238;2024-02-15T09:39:03;0;0;
83626;PMS5003;73589;41.158;-73.238;2024-02-15T09:41:34;0;0;
83626;PMS5003;73589;41.158;-73.238;2024-02-15T09:44:04;0;0;
83626;PMS5003;73589;41.158;-73.238;2024-02-15T09:46:35;0;0;
83626;PMS5003;73589;41.158;-73.238;2024-02-15T09:49:05;0;0;
83626;PMS5003;73589;41.158;-73.238;2024-02-15T09:51:36;0;0;
83626;PMS5003;73589;41.158;-73.238;2024-02-15T09:54:07;0;0;
83626;PMS5003;73589;41.158;-73.238;2024-02-15T09:56:37;0;0;
83626;PMS5003;73589;41.158;-73.238;2024-02-15T09:59:07;0;0;
83626;PMS5003;73589;41.158;-73.238;2024-02-15T10:01:38;0;0;
83626;PMS5003;73589;41.158;-73.238;2024-02-15T10:04:08;0;0;
83626;PMS5003;73589;41.158;-73.238;2024-02-15T10:06:39;0;0;
83626;PMS5003;73589;41.158;-73.238;2024-02-15T10:11:44;0;0;
83626;PMS5003;73589;41.158;-73.238;2024-02-15T10:14:11;0;0;
83626;PMS5003;73589;41.158;-73.238;2024-02-15T10:16:42;0;0;
83626;PMS5003;73589;41.158;-73.238;2024-02-15T10:19:12;0;0;
83626;PMS5003;73589;41.158;-73.238;2024-02-15T10:21:43;0;0;
83626;PMS5003;73589;41.158;-73.238;2024-02-15T10:24:13;0;0;
83626;PMS5003;73589;41.158;-73.238;2024-02-15T10:26:44;0;0;
83626;PMS5003;73589;41.158;-73.238;2024-02-15T10:29:15;0;0;
83626;PMS5003;73589;41.158;-73.238;2024-02-15T10:34:16;0;0;
83626;PMS5003;73589;41.158;-73.238;2024-02-15T10:36:47;0;0;
83626;PMS5003;73589;41.158;-73.238;2024-02-15T10:39:17;0;0;
83626;PMS5003;73589;41.158;-73.238;2024-02-15T10:41:48;0;0;
83626;PMS5003;73589;41.158;-73.238;2024-02-15T10:44:19;0;0;
83626;PMS5003;73589;41.158;-73.238;2024-02-15T10:46:49;0;0;
83626;PMS5003;73589;41.158;-73.238;2024-02-15T10:49:21;0;0;
83626;PMS5003;73589;41.158;-73.238;2024-02-15T10:51:51;0;0;
83626;PMS5003;73589;41.158;-73.238;2024-02-15T10:54:26;0;0;
83626;PMS5003;73589;41.158;-73.238;2024-02-15T10:56:52;0;0;
83626;PMS5003;73589;41.158;-73.238;2024-02-15T10:59:22;0;0;
83626;PMS5003;73589;41.158;-73.238;2024-02-15T11:01:53;0;0;
83626;PMS5003;73589;41.158;-73.238;2024-02-15T11:04:24;0;0;
83626;PMS5003;73589;41.158;-73.238;2024-02-15T11:06:54;0;0;
83626;PMS5003;73589;41.158;-73.238;2024-02-15T11:09:24;0;0;
83626;PMS5003;73589;41.158;-73.238;2024-02-15T11:11:56;0;0;
83626;PMS5003;73589;41.158;-73.238;2024-02-15T11:14:26;0;0;
83626;PMS5003;73589;41.158;-73.238;2024-02-15T11:16:56;0;0;
83626;PMS5003;73589;41.158;-73.238;2024-02-15T11:21:58;0;0;
83626;PMS5003;73589;41.158;-73.238;2024-02-15T11:24:29;0;0;
83626;PMS5003;73589;41.158;-73.238;2024-02-15T11:27:00;0;0;
83626;PMS5003;73589;41.158;-73.238;2024-02-15T11:32:01;0;0;
83626;PMS5003;73589;41.158;-73.238;2024-02-15T11:37:01;0;0;
83626;PMS5003;73589;41.158;-73.238;2024-02-15T11:44:33;0;0;
83626;PMS5003;73589;41.158;-73.238;2024-02-15T11:47:04;0;0;
83626;PMS5003;73589;41.158;-73.238;2024-02-15T11:49:35;0;0;
83626;PMS5003;73589;41.158;-73.238;2024-02-15T11:52:08;0;0;
83626;PMS5003;73589;41.158;-73.238;2024-02-15T11:54:37;0;0;
83626;PMS5003;73589;41.158;-73.238;2024-02-15T11:57:06;0;0;
83626;PMS5003;73589;41.158;-73.238;2024-02-15T11:59:39;0;0;
83626;PMS5003;73589;41.158;-73.238;2024-02-15T12:02:08;0;0;
83626;PMS5003;73589;41.158;-73.238;2024-02-15T12:04:38;0;0;
83626;PMS5003;73589;41.158;-73.238;2024-02-15T12:07:09;0;0;
83626;PMS5003;73589;41.158;-73.238;2024-02-15T12:09:39;0;0;
83626;PMS5003;73589;41.158;-73.238;2024-02-15T12:12:10;0;0;
83626;PMS5003;73589;41.158;-73.238;2024-02-15T12:14:40;0;0;
83626;PMS5003;73589;41.158;-73.238;2024-02-15T12:17:12;0;0;
83626;PMS5003;73589;41.158;-73.238;2024-02-15T12:19:42;0;0;
83626;PMS5003;73589;41.158;-73.238;2024-02-15T12:22:12;0;0;
83626;PMS5003;73589;41.158;-73.238;2024-02-15T12:24:43;0;0;
83626;PMS5003;73589;41.158;-73.238;2024-02-15T12:27:14;0;0;
83626;PMS5003;73589;41.158;-73.238;2024-02-15T12:29:44;0;0;
83626;PMS5003;73589;41.158;-73.238;2024-02-15T12:34:45;0;0;
83626;PMS5003;73589;41.158;-73.238;2024-02-15T12:37:17;0;0;
83626;PMS5003;73589;41.158;-73.238;2024-02-15T12:39:45;0;0;
83626;PMS5003;73589;41.158;-73.238;2024-02-15T12:42:16;0;0;
83626;PMS5003;73589;41.158;-73.238;2024-02-15T12:44:46;0;0;
83626;PMS5003;73589;41.158;-73.238;2024-02-15T12:47:18;0;0;
83626;PMS5003;73589;41.158;-73.238;2024-02-15T12:49:47;0;0;
83626;PMS5003;73589;41.158;-73.238;2024-02-15T12:54:47;0;0;
83626;PMS5003;73589;41.158;-73.238;2024-02-15T12:57:18;0;0;
83626;PMS5003;73589;41.158;-73.238;2024-02-15T12:59:48;0;0;
83626;PMS5003;73589;41.158;-73.238;2024-02-15T13:02:19;0;0;
83626;PMS5003;73589;41.158;-73.238;2024-02-15T13:04:49;0;0;
83626;PMS5003;73589;41.158;-73.238;2024-02-15T13:07:24;0;0;
83626;PMS5003;73589;41.158;-73.238;2024-02-15T13:09:50;0;0;
83626;PMS5003;73589;41.158;-73.238;2024-02-15T13:12:20;0;0;
83626;PMS5003;73589;41.158;-73.238;2024-02-15T13:14:51;0;0;
83626;PMS5003;73589;41.158;-73.238;2024-02-15T13:17:22;0;0;
83626;PMS5003;73589;41.158;-73.238;2024-02-15T13:19:52;0;0;
83626;PMS5003;73589;41.158;-73.238;2024-02-15T13:22:22;0;0;
83626;PMS5003;73589;41.158;-73.238;2024-02-15T13:24:53;0;0;
83626;PMS5003;73589;41.158;-73.238;2024-02-15T13:27:23;0;0;
83626;PMS5003;73589;41.158;-73.238;2024-02-15T13:29:53;0;0;
83626;PMS5003;73589;41.158;-73.238;2024-02-15T13:32:24;0;0;
83626;PMS5003;73589;41.158;-73.238;2024-02-15T13:34:54;0;0;
83626;PMS5003;73589;41.158;-73.238;2024-02-15T13:37:25;0;0;
83626;PMS5003;73589;41.158;-73.238;2024-02-15T13:39:55;0;0;
83626;PMS5003;73589;41.158;-73.238;2024-02-15T13:42:25;0;0;
83626;PMS5003;73589;41.158;-73.238;2024-02-15T13:44:56;0;0;
83626;PMS5003;73589;41.158;-73.238;2024-02-15T13:47:25;0;0;
83626;PMS5003;73589;41.158;-73.238;2024-02-15T13:49:55;0;0;
83626;PMS5003;73589;41.158;-73.238;2024-02-15T13:52:26;0;0;
83626;PMS5003;73589;41.158;-73.238;2024-02-15T13:54:56;0;0;
83626;PMS5003;73589;41.158;-73.238;2024-02-15T13:57:27;0;0;
83626;PMS5003;73589;41.158;-73.238;2024-02-15T13:59:57;0;0;
83626;PMS5003;73589;41.158;-73.238;2024-02-15T14:02:27;0;0;
83626;PMS5003;73589;41.158;-73.238;2024-02-15T14:04:58;0;0;
83626;PMS5003;73589;41.158;-73.238;2024-02-15T14:07:28;0;0;
83626;PMS5003;73589;41.158;-73.238;2024-02-15T14:09:58;0;0;
83626;PMS5003;73589;41.158;-73.238;2024-02-15T14:12:29;0;0;
83626;PMS5003;73589;41.158;-73.238;2024-02-15T14:14:59;0;0;
83626;PMS5003;73589;41.158;-73.238;2024-02-15T14:17:30;0;0;
83626;PMS5003;73589;41.158;-73.238;2024-02-15T14:20:00;0;0;
83626;PMS5003;73589;41.158;-73.238;2024-02-15T14:22:31;0;0;
83626;PMS5003;73589;41.158;-73.238;2024-02-15T14:25:01;0;0;
83626;PMS5003;73589;41.158;-73.238;2024-02-15T14:27:31;0;0;
83626;PMS5003;73589;41.158;-73.238;2024-02-15T14:30:02;0;0;
83626;PMS5003;73589;41.158;-73.238;2024-02-15T14:32:32;34;26;
83626;PMS5003;73589;41.158;-73.238;2024-02-15T14:35:03;70;60;
83626;PMS5003;73589;41.158;-73.238;2024-02-15T14:37:33;75;64;
83626;PMS5003;73589;41.158;-73.238;2024-02-15T14:40:03;74;62;
83626;PMS5003;73589;41.158;-73.238;2024-02-15T14:42:34;68;63;
83626;PMS5003;73589;41.158;-73.238;2024-02-15T14:45:05;58;48;
83626;PMS5003;73589;41.158;-73.238;2024-02-15T14:47:35;47;41;
83626;PMS5003;73589;41.158;-73.238;2024-02-15T14:50:06;53;46;
83626;PMS5003;73589;41.158;-73.238;2024-02-15T14:52:36;40;38;
83626;PMS5003;73589;41.158;-73.238;2024-02-15T14:55:06;49;40;
83626;PMS5003;73589;41.158;-73.238;2024-02-15T14:57:37;51;43;
83626;PMS5003;73589;41.158;-73.238;2024-02-15T15:00:07;49;39;
83626;PMS5003;73589;41.158;-73.238;2024-02-15T15:02:37;40;33;
83626;PMS5003;73589;41.158;-73.238;2024-02-15T15:05:07;39;33;
83626;PMS5003;73589;41.158;-73.238;2024-02-15T15:07:37;37;35;
83626;PMS5003;73589;41.158;-73.238;2024-02-15T15:10:10;37;30;
83626;PMS5003;73589;41.158;-73.238;2024-02-15T15:12:38;28;28;
83626;PMS5003;73589;41.158;-73.238;2024-02-15T15:15:10;34;27;
83626;PMS5003;73589;41.158;-73.238;2024-02-15T15:17:39;40;34;
83626;PMS5003;73589;41.158;-73.238;2024-02-15T15:20:10;31;29;
83626;PMS5003;73589;41.158;-73.238;2024-02-15T15:22:41;33;31;
83626;PMS5003;73589;41.158;-73.238;2024-02-15T15:25:11;35;27;
83626;PMS5003;73589;41.158;-73.238;2024-02-15T15:27:41;26;20;
83626;PMS5003;73589;41.158;-73.238;2024-02-15T15:30:13;21;19;
83626;PMS5003;73589;41.158;-73.238;2024-02-15T15:32:42;18;18;
83626;PMS5003;73589;41.158;-73.238;2024-02-15T15:35:13;22;20;
83626;PMS5003;73589;41.158;-73.238;2024-02-15T15:37:43;23;21;
83626;PMS5003;73589;41.158;-73.238;2024-02-15T15:40:14;16;16;
83626;PMS5003;73589;41.158;-73.238;2024-02-15T15:42:44;21;21;
83626;PMS5003;73589;41.158;-73.238;2024-02-15T15:45:15;22;20;
83626;PMS5003;73589;41.158;-73.238;2024-02-15T15:47:45;22;19;
83626;PMS5003;73589;41.158;-73.238;2024-02-15T15:50:15;29;23;
83626;PMS5003;73589;41.158;-73.238;2024-02-15T15:52:46;21;19;
83626;PMS5003;73589;41.158;-73.238;2024-02-15T15:55:17;24;22;
83626;PMS5003;73589;41.158;-73.238;2024-02-15T15:57:47;19;18;
83626;PMS5003;73589;41.158;-73.238;2024-02-15T16:00:18;23;19;
83626;PMS5003;73589;41.158;-73.238;2024-02-15T16:02:48;21;19;
83626;PMS5003;73589;41.158;-73.238;2024-02-15T16:05:18;19;15;
83626;PMS5003;73589;41.158;-73.238;2024-02-15T16:07:49;27;20;
83626;PMS5003;73589;41.158;-73.238;2024-02-15T16:10:18;19;18;
83626;PMS5003;73589;41.158;-73.238;2024-02-15T16:12:48;16;13;
83626;PMS5003;73589;41.158;-73.238;2024-02-15T16:15:18;18;16;
83626;PMS5003;73589;41.158;-73.238;2024-02-15T16:17:50;16;14;
83626;PMS5003;73589;41.158;-73.238;2024-02-15T16:20:20;14;12;
83626;PMS5003;73589;41.158;-73.238;2024-02-15T16:22:50;14;13;
83626;PMS5003;73589;41.158;-73.238;2024-02-15T16:25:20;13;12;
83626;PMS5003;73589;41.158;-73.238;2024-02-15T16:27:51;14;14;
83626;PMS5003;73589;41.158;-73.238;2024-02-15T16:30:21;13;11;
83626;PMS5003;73589;41.158;-73.238;2024-02-15T16:32:51;12;10;
83626;PMS5003;73589;41.158;-73.238;2024-02-15T16:35:21;11;10;
83626;PMS5003;73589;41.158;-73.238;2024-02-15T16:37:52;13;11;
83626;PMS5003;73589;41.158;-73.238;2024-02-15T16:40:23;12;9;
83626;PMS5003;73589;41.158;-73.238;2024-02-15T16:42:53;11;10;
83626;PMS5003;73589;41.158;-73.238;2024-02-15T16:45:24;13;12;
83626;PMS5003;73589;41.158;-73.238;2024-02-15T16:47:54;9;7;
83626;PMS5003;73589;41.158;-73.238;2024-02-15T16:50:25;8;8;
83626;PMS5003;73589;41.158;-73.238;2024-02-15T16:52:56;8;7;
83626;PMS5003;73589;41.158;-73.238;2024-02-15T16:55:26;8;8;
83626;PMS5003;73589;41.158;-73.238;2024-02-15T16:57:57;12;8;
83626;PMS5003;73589;41.158;-73.238;2024-02-15T17:00:29;7;6;